Time;durP1;ratioP1;P1;durP2;ratioP2;P2;SDS_P1;SDS_P2;PMS_P1;PMS_P2;Temp;Humidity;BMP_temperature;BMP_pressure;BME280_temperature;BME280_humidity;BME280_pressure;Samples;Min_cycle;Max_cycle;Signal;HPM_P1;HPM_P2
2021/08/25 00:02:46;;;;;;;;;;;14.50;88.00;;;14.98;72.96;101552.44;4986718;28;19930;-69
2021/08/25 00:05:13;;;;;;;;;;;14.50;88.00;;;14.95;73.03;101545.47;4970492;28;19926;-68
2021/08/25 00:07:41;;;;;;;;;;;14.50;87.90;;;14.93;73.36;101543.97;4988340;28;20714;-69
2021/08/25 00:10:08;;;;;;;;;;;14.50;88.10;;;14.92;73.35;101547.72;4988426;28;20443;-69
2021/08/25 00:12:35;;;;;;;;;;;14.40;88.10;;;14.87;73.44;101545.56;4988091;28;19929;-69
2021/08/25 00:15:05;;;;;;;;;;;14.40;88.30;;;14.85;73.59;101543.00;4988171;28;20680;-68
2021/08/25 00:17:32;;;;;;;;;;;14.40;88.40;;;14.83;73.44;101545.09;4988503;28;19932;-69
2021/08/25 00:19:59;;;;;;;;;;;14.40;88.40;;;14.82;73.51;101543.38;4988677;28;20408;-69
2021/08/25 00:22:26;;;;;;;;;;;14.40;88.30;;;14.84;73.00;101540.44;4988586;28;20408;-69
2021/08/25 00:24:53;;;;;;;;;;;14.30;88.20;;;14.84;73.16;101530.31;4988576;28;20024;-69
2021/08/25 00:27:20;;;;;;;;;;;14.30;88.40;;;14.78;73.56;101536.56;4991368;28;20020;-69
2021/08/25 00:29:49;;;;;;;;;;;14.20;88.70;;;14.74;73.58;101529.75;4974297;28;19934;-69
2021/08/25 00:32:18;;;;;;;;;;;14.20;88.60;;;14.72;73.73;101531.00;4992199;28;19933;-69
2021/08/25 00:34:45;;;;;;;;;;;14.20;88.90;;;14.71;73.71;101532.88;4991682;28;19933;-69
2021/08/25 00:37:12;;;;;;;;;;;14.20;88.90;;;14.72;73.67;101526.34;4992301;28;19992;-70
2021/08/25 00:39:39;;;;;;;;;;;14.20;88.80;;;14.70;73.98;101522.09;4992297;28;19926;-69
2021/08/25 00:42:06;;;;;;;;;;;14.20;88.80;;;14.66;73.83;101521.63;4992653;28;19930;-68
2021/08/25 00:44:33;;;;;;;;;;;14.10;88.90;;;14.65;73.64;101518.03;4992408;28;19952;-70
2021/08/25 00:47:01;;;;;;;;;;;14.10;88.90;;;14.66;73.52;101516.16;4993146;28;19933;-70
2021/08/25 00:49:29;;;;;;;;;;;14.10;88.80;;;14.64;73.62;101512.72;4992942;28;20020;-70
2021/08/25 00:51:56;;;;;;;;;;;14.10;88.80;;;14.62;73.63;101523.03;4992779;28;19957;-69
2021/08/25 00:54:25;;;;;;;;;;;14.00;88.70;;;14.56;74.04;101515.53;4992578;28;19929;-69
2021/08/25 00:56:52;;;;;;;;;;;14.00;88.90;;;14.55;73.72;101517.41;4992804;28;20036;-70
2021/08/25 00:59:20;;;;;;;;;;;14.00;88.80;;;14.57;73.71;101509.91;4974996;28;20408;-69
2021/08/25 01:01:54;;;;;;;;;;;14.00;88.70;;;14.56;73.45;101504.56;5004811;28;19937;-70
2021/08/25 01:04:29;;;;;;;;;;;14.00;88.80;;;14.52;73.33;101504.09;5012345;28;19976;-69
2021/08/25 01:06:58;;;;;;;;;;;13.90;88.80;;;14.48;73.66;101513.72;5012599;28;19935;-69
2021/08/25 01:09:25;;;;;;;;;;;13.90;89.20;;;14.46;73.94;101511.16;5011636;28;20308;-69
2021/08/25 01:11:57;;;;;;;;;;;13.90;89.00;;;14.43;73.92;101506.06;5012245;28;19925;-69
2021/08/25 01:14:24;;;;;;;;;;;13.90;89.20;;;14.44;74.07;101505.00;5012175;28;19964;-69
2021/08/25 01:16:52;;;;;;;;;;;13.90;89.30;;;14.43;73.82;101503.34;5011345;28;20029;-69
2021/08/25 01:19:20;;;;;;;;;;;13.90;89.10;;;14.37;73.83;101501.31;5012451;28;19976;-69
2021/08/25 01:21:48;;;;;;;;;;;13.80;89.10;;;14.38;74.08;101503.03;5012667;28;19937;-69
2021/08/25 01:24:18;;;;;;;;;;;13.80;89.10;;;14.40;73.74;101502.84;5011632;28;19976;-69
2021/08/25 01:26:46;;;;;;;;;;;13.80;88.90;;;14.37;73.78;101506.78;4994371;28;19952;-68
2021/08/25 01:29:24;;;;;;;;;;;13.80;89.20;;;14.31;73.94;101506.69;5012212;28;19929;-69
2021/08/25 01:31:52;;;;;;;;;;;13.80;89.20;;;14.25;74.38;101498.16;5013677;28;20366;-68
2021/08/25 01:34:19;;;;;;;;;;;13.80;89.50;;;14.28;74.01;101506.03;5012211;28;19940;-69
2021/08/25 01:36:49;;;;;;;;;;;13.70;89.40;;;14.24;73.85;101501.97;4993571;28;20043;-69
2021/08/25 01:39:16;;;;;;;;;;;13.70;89.40;;;14.22;74.04;101493.09;5012156;28;19929;-70
2021/08/25 01:41:43;;;;;;;;;;;13.70;89.30;;;14.21;73.77;101491.38;4994706;28;19930;-71
2021/08/25 01:44:10;;;;;;;;;;;13.70;89.20;;;14.20;73.94;101494.28;4994549;28;19930;-70
2021/08/25 01:46:40;;;;;;;;;;;13.70;89.30;;;14.14;74.08;101487.66;5011280;28;19941;-69
2021/08/25 01:49:08;;;;;;;;;;;13.70;89.40;;;14.13;74.39;101485.13;5012119;28;19991;-71
2021/08/25 01:51:36;;;;;;;;;;;13.70;89.50;;;14.11;74.22;101489.91;5011974;28;20293;-70
2021/08/25 01:54:03;;;;;;;;;;;13.60;89.50;;;14.12;74.51;101483.41;5011587;28;19932;-70
2021/08/25 01:56:31;;;;;;;;;;;13.60;89.30;;;14.07;74.50;101484.81;5011235;28;19951;-69
2021/08/25 01:58:59;;;;;;;;;;;13.60;89.40;;;14.06;74.59;101488.56;5011166;28;20024;-69
2021/08/25 02:01:26;;;;;;;;;;;13.60;89.50;;;14.03;74.24;101482.63;5011280;28;19984;-69
2021/08/25 02:03:55;;;;;;;;;;;13.60;89.50;;;14.06;74.29;101483.09;5011381;28;19929;-69
2021/08/25 02:06:23;;;;;;;;;;;13.60;89.50;;;14.06;74.31;101474.06;5010887;28;19929;-69
2021/08/25 02:08:50;;;;;;;;;;;13.60;89.70;;;14.05;74.44;101475.06;5010964;28;19930;-68
2021/08/25 02:11:17;;;;;;;;;;;13.50;89.80;;;14.04;74.55;101476.97;5010394;28;20003;-69
2021/08/25 02:13:44;;;;;;;;;;;13.50;89.90;;;14.02;74.48;101473.56;5009749;28;19929;-69
2021/08/25 02:16:11;;;;;;;;;;;13.50;89.90;;;14.01;74.42;101474.63;5009853;28;19937;-69
2021/08/25 02:18:38;;;;;;;;;;;13.50;89.80;;;13.99;74.23;101462.13;5009721;28;20030;-69
2021/08/25 02:21:07;;;;;;;;;;;13.50;89.80;;;13.97;74.34;101459.56;5009747;28;19925;-69
2021/08/25 02:23:34;;;;;;;;;;;13.50;89.60;;;13.97;73.90;101462.31;5009298;28;20310;-69
2021/08/25 02:26:01;;;;;;;;;;;13.40;89.60;;;13.93;74.22;101457.41;5008709;28;20059;-69
2021/08/25 02:28:28;;;;;;;;;;;13.40;89.70;;;13.91;74.38;101456.72;5009295;28;20355;-69
2021/08/25 02:30:55;;;;;;;;;;;13.40;89.70;;;13.92;74.16;101459.28;5009334;28;19957;-68
2021/08/25 02:33:22;;;;;;;;;;;13.40;89.80;;;13.94;74.01;101453.63;5008868;28;19929;-71
2021/08/25 02:35:49;;;;;;;;;;;13.40;89.70;;;13.88;74.10;101442.38;5008557;28;19935;-68
2021/08/25 02:38:18;;;;;;;;;;;13.30;89.90;;;13.86;74.28;101449.09;5009174;28;20406;-69
2021/08/25 02:40:45;;;;;;;;;;;13.30;89.90;;;13.84;74.04;101445.66;5008534;28;19957;-68
2021/08/25 02:43:12;;;;;;;;;;;13.30;89.70;;;13.80;74.31;101447.94;4990981;28;19980;-68
2021/08/25 02:45:39;;;;;;;;;;;13.30;90.00;;;13.79;74.62;101442.63;5008345;28;19929;-69
2021/08/25 02:48:06;;;;;;;;;;;13.30;90.00;;;13.76;74.87;101443.84;4990724;28;20017;-69
2021/08/25 02:50:33;;;;;;;;;;;13.30;90.00;;;13.77;74.36;101447.44;5008540;28;19929;-69
2021/08/25 02:53:00;;;;;;;;;;;13.30;90.00;;;13.77;74.32;101442.81;5008362;28;20393;-68
2021/08/25 02:55:29;;;;;;;;;;;13.30;89.90;;;13.75;74.36;101449.50;5007931;28;19930;-68
2021/08/25 02:57:58;;;;;;;;;;;13.20;89.90;;;13.78;74.36;101446.38;5008591;28;19929;-68
2021/08/25 03:00:25;;;;;;;;;;;13.20;89.90;;;13.75;74.47;101444.03;5008004;28;20069;-69
2021/08/25 03:02:52;;;;;;;;;;;13.20;90.00;;;13.76;74.58;101440.25;5008373;28;19972;-69
2021/08/25 03:05:19;;;;;;;;;;;13.20;90.20;;;13.72;74.54;101434.28;5007474;28;19925;-68
2021/08/25 03:07:46;;;;;;;;;;;13.20;90.10;;;13.69;74.77;101431.94;5007734;28;19932;-69
2021/08/25 03:10:13;;;;;;;;;;;13.20;90.10;;;13.67;74.67;101429.38;5008329;28;20025;-68
2021/08/25 03:12:42;;;;;;;;;;;13.20;90.00;;;13.67;74.45;101428.53;5007908;28;20747;-69
2021/08/25 03:15:10;;;;;;;;;;;13.10;89.90;;;13.64;74.39;101429.75;5007545;28;19929;-69
2021/08/25 03:17:37;;;;;;;;;;;13.10;90.00;;;13.63;74.51;101425.31;5008018;28;19965;-69
2021/08/25 03:20:06;;;;;;;;;;;13.10;90.00;;;13.60;74.50;101422.94;4990465;28;20020;-69
2021/08/25 03:22:33;;;;;;;;;;;13.00;90.00;;;13.60;74.38;101414.72;5008013;28;19976;-68
2021/08/25 03:25:00;;;;;;;;;;;13.10;90.10;;;13.57;74.37;101412.34;5008311;28;20364;-69
2021/08/25 03:27:27;;;;;;;;;;;13.00;90.00;;;13.57;74.23;101406.88;5008265;28;19929;-69
2021/08/25 03:29:56;;;;;;;;;;;13.10;90.10;;;13.54;74.65;101407.25;5008147;28;19996;-69
2021/08/25 03:32:23;;;;;;;;;;;13.00;90.20;;;13.54;74.38;101409.16;5009164;28;20650;-69
2021/08/25 03:34:50;;;;;;;;;;;13.00;90.20;;;13.51;74.55;101412.25;5008444;28;20301;-69
2021/08/25 03:37:18;;;;;;;;;;;13.00;90.20;;;13.51;74.48;101407.63;5008891;28;19983;-70
2021/08/25 03:39:45;;;;;;;;;;;13.00;90.20;;;13.53;74.23;101407.44;5008668;28;19930;-69
2021/08/25 03:42:12;;;;;;;;;;;12.90;90.20;;;13.52;74.24;101411.19;5009186;28;19973;-70
2021/08/25 03:44:40;;;;;;;;;;;12.90;90.20;;;13.51;74.36;101409.50;5008817;28;19925;-70
2021/08/25 03:47:10;;;;;;;;;;;12.90;90.10;;;13.51;74.53;101413.09;5008061;28;20023;-68
2021/08/25 03:49:37;;;;;;;;;;;12.90;90.30;;;13.47;74.22;101406.28;5007810;28;19933;-70
2021/08/25 03:52:05;;;;;;;;;;;12.90;90.50;;;13.44;74.03;101403.91;5008396;28;19979;-69
2021/08/25 03:54:32;;;;;;;;;;;12.90;90.30;;;13.40;74.57;101397.09;5007938;28;19940;-69
2021/08/25 03:56:59;;;;;;;;;;;12.80;90.30;;;13.37;74.48;101394.75;5008077;28;19933;-69
2021/08/25 03:59:27;;;;;;;;;;;12.80;90.40;;;13.37;74.28;101402.94;5007850;28;19925;-69
2021/08/25 04:01:54;;;;;;;;;;;12.80;90.40;;;13.37;74.64;101400.22;5009614;28;20410;-68
2021/08/25 04:04:22;;;;;;;;;;;12.80;90.50;;;13.36;74.52;101396.59;5008148;28;19983;-69
2021/08/25 04:06:49;;;;;;;;;;;12.80;90.30;;;13.40;74.03;101399.81;5009474;28;19929;-71
2021/08/25 04:09:16;;;;;;;;;;;12.80;90.30;;;13.35;74.43;101402.28;5010165;28;19975;-71
2021/08/25 04:11:43;;;;;;;;;;;12.70;90.40;;;13.33;74.35;101393.38;5009686;28;20375;-72
2021/08/25 04:14:11;;;;;;;;;;;12.80;90.40;;;13.34;74.31;101406.03;5010168;28;19925;-72
2021/08/25 04:16:38;;;;;;;;;;;12.70;90.20;;;13.35;74.07;101399.53;4994785;28;19936;-74
2021/08/25 04:19:05;;;;;;;;;;;12.80;90.30;;;13.33;74.14;101398.84;4991956;28;19926;-74
2021/08/25 04:21:33;;;;;;;;;;;12.70;90.30;;;13.26;74.29;101396.81;4989826;28;19933;-78
2021/08/25 04:24:01;;;;;;;;;;;12.70;90.40;;;13.26;74.77;101405.00;4989944;28;19929;-78
2021/08/25 04:26:28;;;;;;;;;;;12.70;90.50;;;13.27;74.38;101401.25;4990828;28;20049;-77
2021/08/25 04:28:55;;;;;;;;;;;12.70;90.20;;;13.27;74.29;101398.53;4990651;28;19988;-74
2021/08/25 04:31:22;;;;;;;;;;;12.70;90.20;;;13.29;74.13;101392.88;4991140;28;20386;-73
2021/08/25 04:33:49;;;;;;;;;;;12.70;90.30;;;13.30;74.35;101395.44;4990632;28;19984;-74
2021/08/25 04:36:16;;;;;;;;;;;12.70;90.40;;;13.22;74.45;101394.63;4989746;28;20480;-76
2021/08/25 04:38:45;;;;;;;;;;;12.70;90.60;;;13.23;74.94;101394.47;4989819;28;19929;-76
2021/08/25 04:41:12;;;;;;;;;;;12.70;90.60;;;13.26;74.86;101394.06;4989209;28;19933;-77
2021/08/25 04:43:39;;;;;;;;;;;12.70;90.60;;;13.24;75.12;101392.56;4989146;28;20000;-74
2021/08/25 04:46:06;;;;;;;;;;;12.80;90.50;;;13.25;74.47;101397.84;4988058;28;19988;-74
2021/08/25 04:48:34;;;;;;;;;;;12.80;90.40;;;13.22;75.21;101395.47;4988562;28;19930;-74
2021/08/25 04:51:02;;;;;;;;;;;12.80;90.50;;;13.24;74.99;101387.94;4988050;28;19937;-73
2021/08/25 04:53:29;;;;;;;;;;;12.80;90.30;;;13.27;74.91;101384.00;4987417;28;20421;-74
2021/08/25 04:55:57;;;;;;;;;;;12.80;90.40;;;13.28;75.30;101386.53;4988298;28;20016;-74
2021/08/25 04:58:25;;;;;;;;;;;12.80;90.30;;;13.27;75.19;101384.84;4988258;28;20583;-73
2021/08/25 05:00:52;;;;;;;;;;;12.90;90.30;;;13.25;75.23;101386.91;4993291;28;20056;-73
2021/08/25 05:03:19;;;;;;;;;;;12.90;90.50;;;13.22;75.29;101381.81;5007937;28;19940;-74
2021/08/25 05:05:46;;;;;;;;;;;12.90;90.50;;;13.20;75.99;101381.13;5008687;28;20348;-75
2021/08/25 05:08:13;;;;;;;;;;;12.90;90.80;;;13.24;75.82;101379.75;5009102;28;19999;-75
2021/08/25 05:10:40;;;;;;;;;;;13.00;90.70;;;13.27;75.84;101379.38;5009408;28;19957;-75
2021/08/25 05:13:09;;;;;;;;;;;13.00;90.60;;;13.25;75.92;101377.84;4993737;28;20302;-75
2021/08/25 05:15:36;;;;;;;;;;;13.00;90.70;;;13.22;76.51;101375.50;5011436;28;19930;-73
2021/08/25 05:18:03;;;;;;;;;;;13.00;90.60;;;13.26;76.30;101376.84;5010097;28;20400;-75
2021/08/25 05:20:30;;;;;;;;;;;13.00;90.70;;;13.28;76.41;101374.75;4995896;28;20401;-74
2021/08/25 05:22:58;;;;;;;;;;;13.10;90.70;;;13.28;76.08;101375.59;5013476;28;19961;-74
2021/08/25 05:25:25;;;;;;;;;;;13.10;90.70;;;13.28;76.60;101378.34;5010946;28;20008;-75
2021/08/25 05:27:52;;;;;;;;;;;13.10;90.80;;;13.30;76.95;101372.72;5011418;28;20080;-73
2021/08/25 05:30:21;;;;;;;;;;;13.20;90.80;;;13.32;77.04;101369.81;5012574;28;19929;-75
2021/08/25 05:32:51;;;;;;;;;;;13.20;90.60;;;13.35;77.30;101375.78;5012450;28;20305;-73
2021/08/25 05:35:19;;;;;;;;;;;13.30;90.80;;;13.34;77.53;101376.78;5008827;28;20316;-73
2021/08/25 05:37:46;;;;;;;;;;;13.40;90.80;;;13.41;77.33;101385.13;5011088;28;19932;-73
2021/08/25 05:40:14;;;;;;;;;;;13.40;90.70;;;13.40;77.83;101384.28;5001739;28;19936;-73
2021/08/25 05:42:41;;;;;;;;;;;13.50;90.60;;;13.44;77.62;101390.22;5001568;28;19937;-73
2021/08/25 05:45:10;;;;;;;;;;;13.50;90.70;;;13.41;77.83;101380.50;5012702;23;19930;-81
2021/08/25 05:47:39;;;;;;;;;;;13.60;90.60;;;13.46;78.36;101388.16;4998996;28;20028;-81
2021/08/25 05:50:07;;;;;;;;;;;13.70;90.50;;;13.48;78.24;101386.13;5000024;28;19944;-82
2021/08/25 05:52:34;;;;;;;;;;;13.70;90.40;;;13.52;78.70;101383.84;5000896;28;20036;-81
2021/08/25 05:55:02;;;;;;;;;;;13.90;90.40;;;13.55;78.87;101376.13;5000188;28;19930;-81
2021/08/25 05:57:29;;;;;;;;;;;13.90;90.30;;;13.59;79.24;101382.09;5000671;28;19953;-82
2021/08/25 05:59:57;;;;;;;;;;;14.00;90.30;;;13.64;79.14;101376.94;5001140;28;19929;-83
2021/08/25 06:02:24;;;;;;;;;;;14.10;90.20;;;13.65;79.45;101371.28;5016425;23;19929;-67
2021/08/25 06:04:53;;;;;;;;;;;14.10;90.20;;;13.71;79.40;101368.81;5008806;28;19925;-67
2021/08/25 06:07:20;;;;;;;;;;;14.20;89.90;;;13.72;79.39;101368.63;5009394;28;19929;-67
2021/08/25 06:09:47;;;;;;;;;;;14.30;89.70;;;13.77;79.16;101373.56;5009783;28;19995;-67
2021/08/25 06:12:14;;;;;;;;;;;14.40;89.30;;;13.81;79.55;101374.91;4990934;28;20020;-67
2021/08/25 06:14:41;;;;;;;;;;;14.50;89.10;;;13.84;79.22;101374.50;5008755;28;19937;-67
2021/08/25 06:17:08;;;;;;;;;;;14.60;89.10;;;13.89;79.85;101377.56;4991876;28;20025;-68
2021/08/25 06:19:35;;;;;;;;;;;14.70;89.20;;;13.91;79.93;101378.22;5009411;28;19929;-67
2021/08/25 06:22:04;;;;;;;;;;;14.80;89.00;;;13.96;80.17;101372.19;5009781;28;20032;-67
2021/08/25 06:24:31;;;;;;;;;;;14.90;88.80;;;13.99;80.43;101369.06;5008380;28;20035;-68
2021/08/25 06:26:58;;;;;;;;;;;14.90;88.90;;;14.02;80.15;101383.25;5008518;28;19988;-68
2021/08/25 06:29:25;;;;;;;;;;;15.00;88.30;;;14.06;80.06;101368.13;5009421;28;19965;-68
2021/08/25 06:31:52;;;;;;;;;;;15.10;88.10;;;14.13;80.07;101367.41;5009288;28;19930;-67
2021/08/25 06:34:19;;;;;;;;;;;15.20;87.90;;;14.15;80.60;101370.81;5008944;28;19984;-68
2021/08/25 06:36:46;;;;;;;;;;;15.30;87.90;;;14.19;80.78;101374.88;5008887;28;19972;-66
2021/08/25 06:39:15;;;;;;;;;;;15.50;87.30;;;14.22;80.49;101377.22;5008311;28;19929;-67
2021/08/25 06:41:42;;;;;;;;;;;15.60;86.40;;;14.29;80.85;101372.69;5009132;28;19930;-65
2021/08/25 06:44:09;;;;;;;;;;;15.80;86.10;;;14.36;80.33;101368.19;5008359;28;19925;-66
2021/08/25 06:46:36;;;;;;;;;;;15.90;85.70;;;14.43;80.88;101369.13;5008500;28;19936;-66
2021/08/25 06:49:03;;;;;;;;;;;16.00;85.50;;;14.52;80.33;101366.28;5008210;28;20381;-67
2021/08/25 06:51:31;;;;;;;;;;;16.10;85.30;;;14.56;80.99;101371.19;5005829;28;19930;-66
2021/08/25 06:53:58;;;;;;;;;;;16.20;85.40;;;14.59;80.73;101357.16;4989472;28;20451;-66
2021/08/25 06:56:26;;;;;;;;;;;16.20;84.90;;;14.69;80.02;101361.47;5007833;28;20015;-66
2021/08/25 06:58:53;;;;;;;;;;;16.30;84.70;;;14.74;79.82;101365.34;5008845;28;19976;-66
2021/08/25 07:01:21;;;;;;;;;;;16.40;84.80;;;14.79;80.56;101362.03;5007505;28;19933;-66
2021/08/25 07:03:48;;;;;;;;;;;16.40;85.00;;;14.81;80.44;101366.28;5008469;28;19929;-66
2021/08/25 07:06:15;;;;;;;;;;;16.50;84.80;;;14.84;78.92;101363.16;5007566;28;20444;-66
2021/08/25 07:08:42;;;;;;;;;;;16.50;83.40;;;14.94;78.57;101364.75;4998948;28;20405;-67
2021/08/25 07:11:09;;;;;;;;;;;16.60;82.90;;;15.02;77.95;101364.63;5008142;28;19976;-66
2021/08/25 07:13:38;;;;;;;;;;;16.60;82.60;;;15.05;78.26;101356.84;5008113;28;19975;-67
2021/08/25 07:16:07;;;;;;;;;;;16.70;83.00;;;15.13;77.77;101358.63;4996662;28;19929;-67
2021/08/25 07:18:34;;;;;;;;;;;16.80;82.70;;;15.16;77.90;101358.25;5007468;28;19945;-65
2021/08/25 07:21:03;;;;;;;;;;;16.80;82.40;;;15.24;77.06;101351.78;4998460;28;20718;-67
2021/08/25 07:23:30;;;;;;;;;;;17.00;81.40;;;15.30;76.79;101352.91;5005921;28;19975;-67
2021/08/25 07:25:58;;;;;;;;;;;17.00;81.30;;;15.38;77.48;101345.41;5006080;28;19988;-67
2021/08/25 07:28:25;;;;;;;;;;;17.10;81.80;;;15.44;77.96;101354.75;5005347;28;19929;-67
2021/08/25 07:30:53;;;;;;;;;;;17.20;81.50;;;15.51;77.08;101344.66;5006319;28;20039;-67
2021/08/25 07:33:22;;;;;;;;;;;17.30;81.10;;;15.58;77.67;101344.75;5005934;28;20397;-67
2021/08/25 07:35:50;;;;;;;;;;;17.40;81.40;;;15.64;76.94;101333.81;5004556;28;20551;-67
2021/08/25 07:38:17;;;;;;;;;;;17.50;80.80;;;15.68;76.60;101338.91;5006848;28;19960;-67
2021/08/25 07:40:44;;;;;;;;;;;17.50;80.10;;;15.73;75.75;101336.44;5006735;28;19929;-68
2021/08/25 07:43:11;;;;;;;;;;;17.60;79.30;;;15.80;76.82;101348.31;5008044;28;20052;-67
2021/08/25 07:45:38;;;;;;;;;;;17.60;80.30;;;15.88;76.73;101339.97;5007368;28;19968;-67
2021/08/25 07:48:07;;;;;;;;;;;17.70;79.90;;;15.94;75.99;101341.91;5006408;28;20020;-67
2021/08/25 07:50:35;;;;;;;;;;;17.80;79.70;;;16.02;75.73;101339.00;5007380;28;20475;-67
2021/08/25 07:53:02;;;;;;;;;;;17.90;79.20;;;16.09;75.87;101341.81;4989917;28;19941;-67
2021/08/25 07:55:29;;;;;;;;;;;18.00;79.10;;;16.15;74.78;101340.16;5007077;28;19936;-67
2021/08/25 07:57:56;;;;;;;;;;;18.10;77.70;;;16.24;75.33;101338.94;5008225;28;19929;-67
2021/08/25 08:00:23;;;;;;;;;;;18.20;78.60;;;16.34;76.48;101333.09;5008184;28;20392;-67
2021/08/25 08:02:50;;;;;;;;;;;18.20;79.10;;;16.39;75.54;101328.69;5007350;28;20025;-67
2021/08/25 08:05:19;;;;;;;;;;;18.40;78.50;;;16.45;75.08;101331.66;5007286;28;19995;-66
2021/08/25 08:07:46;;;;;;;;;;;18.50;78.00;;;16.47;74.45;101318.53;5007407;28;19932;-66
2021/08/25 08:10:14;;;;;;;;;;;18.50;77.00;;;16.60;73.02;101315.84;5007986;28;19929;-67
2021/08/25 08:12:41;;;;;;;;;;;18.60;76.70;;;16.68;74.31;101318.44;5007615;28;19929;-66
2021/08/25 08:15:11;;;;;;;;;;;18.70;77.10;;;16.73;73.87;101321.41;5007733;28;19984;-66
2021/08/25 08:17:43;;;;;;;;;;;18.80;76.50;;;16.90;74.01;101315.59;5007694;28;20619;-66
2021/08/25 08:20:11;;;;;;;;;;;18.90;76.80;;;16.88;71.78;101323.19;5007484;28;20003;-67
2021/08/25 08:22:39;;;;;;;;;;;19.00;74.60;;;16.92;71.60;101319.81;5007921;28;20036;-66
2021/08/25 08:25:07;;;;;;;;;;;19.00;74.50;;;17.01;73.52;101323.25;5007220;28;19975;-67
2021/08/25 08:27:34;;;;;;;;;;;19.10;75.90;;;17.14;75.42;101312.25;5007550;28;19929;-66
2021/08/25 08:30:02;;;;;;;;;;;19.20;77.20;;;17.23;74.57;101314.81;5007391;28;19984;-67
2021/08/25 08:32:29;;;;;;;;;;;19.30;76.80;;;17.27;74.93;101318.84;5007955;28;20028;-67
2021/08/25 08:34:56;;;;;;;;;;;19.40;77.00;;;17.31;73.49;101322.88;5005895;28;20032;-67
2021/08/25 08:37:23;;;;;;;;;;;19.50;75.30;;;17.32;71.93;101321.81;5007960;28;19929;-67
2021/08/25 08:39:51;;;;;;;;;;;19.50;74.30;;;17.32;70.79;101319.91;4990400;28;19983;-66
2021/08/25 08:42:27;;;;;;;;;;;19.50;72.90;;;17.38;71.64;101323.72;4990180;28;19929;-67
2021/08/25 08:44:55;;;;;;;;;;;19.60;73.60;;;17.57;71.25;101317.41;5008037;28;19930;-67
2021/08/25 08:47:24;;;;;;;;;;;19.70;74.30;;;17.58;71.93;101308.06;5010965;28;20022;-67
2021/08/25 08:49:53;;;;;;;;;;;19.80;74.60;;;17.71;72.04;101303.63;5007324;28;19929;-67
2021/08/25 08:52:21;;;;;;;;;;;19.80;74.60;;;17.79;73.43;101300.66;5011710;28;19929;-67
2021/08/25 08:54:49;;;;;;;;;;;19.90;75.70;;;17.71;70.24;101296.22;5011575;28;20025;-66
2021/08/25 08:57:18;;;;;;;;;;;19.80;73.10;;;17.70;70.88;101293.66;5011056;28;19929;-67
2021/08/25 08:59:45;;;;;;;;;;;19.80;73.20;;;17.77;71.70;101295.34;5010701;28;19972;-66
2021/08/25 09:02:13;;;;;;;;;;;19.80;73.30;;;17.76;69.14;101295.56;5011343;28;20435;-67
2021/08/25 09:04:46;;;;;;;;;;;19.90;72.30;;;17.81;69.13;101295.78;5008915;28;20012;-66
2021/08/25 09:07:20;;;;;;;;;;;19.90;71.60;;;17.89;68.53;101292.81;5009291;28;19991;-66
2021/08/25 09:09:55;;;;;;;;;;;20.00;71.20;;;17.89;63.36;101295.59;5010649;28;19929;-66
2021/08/25 09:12:24;;;;;;;;;;;20.00;67.90;;;17.94;65.06;101289.44;4992614;28;19933;-67
2021/08/25 09:14:52;;;;;;;;;;;20.00;67.80;;;18.00;66.69;101293.25;5008987;28;19965;-66
2021/08/25 09:17:29;;;;;;;;;;;20.10;69.40;;;18.04;65.55;101295.34;5009987;28;20307;-66
2021/08/25 09:20:12;;;;;;;;;;;20.20;68.70;;;18.04;63.62;101295.34;5008848;28;20021;-67
2021/08/25 09:22:39;;;;;;;;;;;20.10;67.10;;;18.08;63.99;101293.00;5005369;28;20008;-66
2021/08/25 09:25:06;;;;;;;;;;;20.10;67.30;;;18.00;63.75;101298.75;5010030;28;19926;-66
2021/08/25 09:27:35;;;;;;;;;;;20.00;67.20;;;18.08;63.97;101284.75;5010430;28;20539;-67
2021/08/25 09:30:04;;;;;;;;;;;20.00;68.10;;;18.04;63.71;101291.75;4992538;28;20309;-66
2021/08/25 09:32:33;;;;;;;;;;;20.00;67.20;;;18.06;65.47;101286.88;5010092;28;19932;-66
2021/08/25 09:35:01;;;;;;;;;;;20.00;69.00;;;18.10;64.73;101277.94;5009661;28;19929;-67
2021/08/25 09:37:29;;;;;;;;;;;20.10;68.70;;;18.16;64.38;101279.88;5010593;28;19933;-66
2021/08/25 09:39:59;;;;;;;;;;;20.10;68.30;;;18.21;63.22;101272.84;5009716;28;19929;-66
2021/08/25 09:42:26;;;;;;;;;;;20.10;67.30;;;18.19;61.82;101264.81;5010281;28;19964;-66
2021/08/25 09:45:03;;;;;;;;;;;20.10;66.70;;;18.15;62.36;101261.63;5009880;28;19991;-66
2021/08/25 09:47:50;;;;;;;;;;;20.10;65.60;;;18.18;63.21;101265.84;4992774;28;19955;-66
2021/08/25 09:50:18;;;;;;;;;;;20.20;66.90;;;18.25;63.37;101263.09;4992313;28;19933;-66
2021/08/25 09:52:45;;;;;;;;;;;20.20;66.70;;;18.34;60.52;101254.34;5009700;28;20077;-67
2021/08/25 09:55:13;;;;;;;;;;;20.30;65.60;;;18.39;59.61;101250.97;5009955;28;19973;-67
2021/08/25 09:57:42;;;;;;;;;;;20.30;64.70;;;18.36;59.94;101248.63;5009543;28;20003;-66
2021/08/25 10:00:12;;;;;;;;;;;20.30;63.90;;;18.34;56.46;101246.09;5010547;28;19960;-67
2021/08/25 10:02:39;;;;;;;;;;;20.30;61.30;;;18.40;58.17;101249.06;5010476;28;19933;-67
2021/08/25 10:05:24;;;;;;;;;;;20.30;62.20;;;18.44;57.94;101242.03;5010226;28;20016;-67
2021/08/25 10:07:52;;;;;;;;;;;20.30;62.40;;;18.40;58.24;101252.63;5010836;28;19931;-67
2021/08/25 10:10:19;;;;;;;;;;;20.40;62.50;;;18.43;57.86;101249.47;5010440;28;19940;-67
2021/08/25 10:12:49;;;;;;;;;;;20.40;61.50;;;18.48;57.76;101246.88;5009776;28;19956;-66
2021/08/25 10:15:41;;;;;;;;;;;20.40;61.90;;;18.54;57.29;101242.41;5009425;28;19936;-67
2021/08/25 10:18:26;;;;;;;;;;;20.40;62.10;;;18.58;59.02;101251.91;5005604;28;20115;-66
2021/08/25 10:20:54;;;;;;;;;;;20.50;63.60;;;18.59;57.39;101239.84;5008764;28;19929;-67
2021/08/25 10:23:37;;;;;;;;;;;20.50;62.30;;;18.64;60.40;101228.13;5009493;28;19925;-66
2021/08/25 10:26:08;;;;;;;;;;;20.50;63.30;;;18.68;58.85;101224.72;5008103;28;19929;-66
2021/08/25 10:29:14;;;;;;;;;;;20.50;63.30;;;18.65;59.23;101227.91;5009032;28;19930;-66
2021/08/25 10:32:16;;;;;;;;;;;20.60;63.40;;;18.55;58.08;101224.81;4988414;28;20022;-67
2021/08/25 10:34:44;;;;;;;;;;;20.50;61.80;;;18.54;57.51;101217.59;5008881;28;20349;-66
2021/08/25 10:37:29;;;;;;;;;;;20.50;62.20;;;18.54;58.66;101215.69;5009003;28;20028;-67
2021/08/25 10:40:04;;;;;;;;;;;20.50;62.70;;;18.55;57.37;101213.78;5008540;28;19929;-67
2021/08/25 10:42:47;;;;;;;;;;;20.50;61.90;;;18.56;56.21;101204.41;5008469;28;20050;-66
2021/08/25 10:45:15;;;;;;;;;;;20.50;60.80;;;18.62;55.78;101202.69;5008754;28;19952;-66
2021/08/25 10:47:58;;;;;;;;;;;20.50;60.40;;;18.68;57.58;101199.91;5008537;28;19969;-66
2021/08/25 10:50:46;;;;;;;;;;;20.50;62.20;;;18.73;57.99;101191.81;5008668;28;20428;-66
2021/08/25 10:53:48;;;;;;;;;;;20.60;62.10;;;18.89;58.84;101195.16;4991271;28;19983;-66
2021/08/25 10:56:18;;;;;;;;;;;20.60;62.80;;;18.85;59.86;101196.63;4978046;28;19926;-66
2021/08/25 10:58:48;;;;;;;;;;;20.70;64.00;;;18.87;59.57;101189.00;4989281;28;20428;-67
2021/08/25 11:01:25;;;;;;;;;;;20.80;63.50;;;18.85;57.06;101185.59;4989555;28;20431;-66
2021/08/25 11:03:54;;;;;;;;;;;20.80;61.20;;;18.83;59.01;101183.09;4989478;28;19980;-67
2021/08/25 11:06:51;;;;;;;;;;;20.80;62.30;;;18.82;59.95;101173.13;4981590;28;19940;-67
2021/08/25 11:09:24;;;;;;;;;;;20.80;63.20;;;18.82;58.66;101164.84;5008202;28;19940;-67
2021/08/25 11:11:53;;;;;;;;;;;20.80;62.50;;;18.78;58.45;101163.56;5008297;28;20012;-67
2021/08/25 11:14:23;;;;;;;;;;;20.80;61.40;;;18.76;57.62;101169.31;4990061;28;19929;-66
2021/08/25 11:16:51;;;;;;;;;;;20.70;61.00;;;18.90;57.35;101158.22;5007899;28;19930;-66
2021/08/25 11:19:25;;;;;;;;;;;20.80;62.10;;;18.86;55.93;101149.53;5008491;28;19938;-66